sensor_id;sensor_type;location;lat;lon;timestamp;temperature;humidity
2106;DHT22;1059;52.548;13.408;2022-12-07T00:01:53;3.00;99.90
2106;DHT22;1059;52.548;13.408;2022-12-07T00:04:20;3.00;99.90
2106;DHT22;1059;52.548;13.408;2022-12-07T00:06:50;3.00;99.90
2106;DHT22;1059;52.548;13.408;2022-12-07T00:09:18;3.00;99.90
2106;DHT22;1059;52.548;13.408;2022-12-07T00:11:49;2.90;99.90
2106;DHT22;1059;52.548;13.408;2022-12-07T00:14:17;3.00;99.90
2106;DHT22;1059;52.548;13.408;2022-12-07T00:16:44;3.00;99.90
2106;DHT22;1059;52.548;13.408;2022-12-07T00:19:13;3.00;99.90
2106;DHT22;1059;52.548;13.408;2022-12-07T00:21:40;3.00;99.90
2106;DHT22;1059;52.548;13.408;2022-12-07T00:24:07;3.00;99.90
2106;DHT22;1059;52.548;13.408;2022-12-07T00:26:35;2.90;99.90
2106;DHT22;1059;52.548;13.408;2022-12-07T00:29:06;2.90;99.90
2106;DHT22;1059;52.548;13.408;2022-12-07T00:31:35;2.80;99.90
2106;DHT22;1059;52.548;13.408;2022-12-07T00:34:04;2.80;99.90
2106;DHT22;1059;52.548;13.408;2022-12-07T00:36:31;2.80;99.90
2106;DHT22;1059;52.548;13.408;2022-12-07T00:38:59;2.70;99.90
2106;DHT22;1059;52.548;13.408;2022-12-07T00:41:27;2.70;99.90
2106;DHT22;1059;52.548;13.408;2022-12-07T00:43:54;2.70;99.90
2106;DHT22;1059;52.548;13.408;2022-12-07T00:46:23;2.70;99.90
2106;DHT22;1059;52.548;13.408;2022-12-07T00:48:50;2.70;99.90
2106;DHT22;1059;52.548;13.408;2022-12-07T00:51:19;2.80;99.90
2106;DHT22;1059;52.548;13.408;2022-12-07T00:53:46;2.70;99.90
2106;DHT22;1059;52.548;13.408;2022-12-07T00:56:15;2.70;99.90
2106;DHT22;1059;52.548;13.408;2022-12-07T00:58:42;2.70;99.90
2106;DHT22;1059;52.548;13.408;2022-12-07T01:01:10;2.70;99.90
2106;DHT22;1059;52.548;13.408;2022-12-07T01:03:38;2.60;99.90
2106;DHT22;1059;52.548;13.408;2022-12-07T01:06:05;2.60;99.90
2106;DHT22;1059;52.548;13.408;2022-12-07T01:08:33;2.60;99.90
2106;DHT22;1059;52.548;13.408;2022-12-07T01:11:01;2.50;99.90
2106;DHT22;1059;52.548;13.408;2022-12-07T01:13:28;2.50;99.90
2106;DHT22;1059;52.548;13.408;2022-12-07T01:15:57;2.50;99.90
2106;DHT22;1059;52.548;13.408;2022-12-07T01:18:26;2.50;99.90
2106;DHT22;1059;52.548;13.408;2022-12-07T01:21:03;2.50;99.90
2106;DHT22;1059;52.548;13.408;2022-12-07T01:23:30;2.50;99.90
2106;DHT22;1059;52.548;13.408;2022-12-07T01:25:59;2.50;99.90
2106;DHT22;1059;52.548;13.408;2022-12-07T01:28:26;2.50;99.90
2106;DHT22;1059;52.548;13.408;2022-12-07T01:30:58;2.50;99.90
2106;DHT22;1059;52.548;13.408;2022-12-07T01:33:27;2.50;99.90
2106;DHT22;1059;52.548;13.408;2022-12-07T01:35:54;2.60;99.90
2106;DHT22;1059;52.548;13.408;2022-12-07T01:38:22;2.60;99.90
2106;DHT22;1059;52.548;13.408;2022-12-07T01:40:54;2.50;99.90
2106;DHT22;1059;52.548;13.408;2022-12-07T01:43:22;2.50;99.90
2106;DHT22;1059;52.548;13.408;2022-12-07T01:45:50;2.50;99.90
2106;DHT22;1059;52.548;13.408;2022-12-07T01:48:20;2.50;99.90
2106;DHT22;1059;52.548;13.408;2022-12-07T01:50:50;2.50;99.90
2106;DHT22;1059;52.548;13.408;2022-12-07T01:53:19;2.50;99.90
2106;DHT22;1059;52.548;13.408;2022-12-07T01:55:51;2.50;99.90
2106;DHT22;1059;52.548;13.408;2022-12-07T01:58:19;2.50;99.90
2106;DHT22;1059;52.548;13.408;2022-12-07T02:00:47;2.60;99.90
2106;DHT22;1059;52.548;13.408;2022-12-07T02:03:16;2.60;99.90
2106;DHT22;1059;52.548;13.408;2022-12-07T02:05:46;2.60;99.90
2106;DHT22;1059;52.548;13.408;2022-12-07T02:08:14;2.60;99.90
2106;DHT22;1059;52.548;13.408;2022-12-07T02:10:42;2.70;99.90
2106;DHT22;1059;52.548;13.408;2022-12-07T02:13:13;2.70;99.90
2106;DHT22;1059;52.548;13.408;2022-12-07T02:15:54;2.70;99.90
2106;DHT22;1059;52.548;13.408;2022-12-07T02:18:31;2.70;99.90
2106;DHT22;1059;52.548;13.408;2022-12-07T02:21:06;2.70;99.90
2106;DHT22;1059;52.548;13.408;2022-12-07T02:23:53;2.70;99.90
2106;DHT22;1059;52.548;13.408;2022-12-07T02:26:53;2.70;99.90
2106;DHT22;1059;52.548;13.408;2022-12-07T02:29:26;2.70;99.90
2106;DHT22;1059;52.548;13.408;2022-12-07T02:31:59;2.70;99.90
2106;DHT22;1059;52.548;13.408;2022-12-07T02:34:34;2.70;99.90
2106;DHT22;1059;52.548;13.408;2022-12-07T02:37:09;2.70;99.90
2106;DHT22;1059;52.548;13.408;2022-12-07T02:39:40;2.70;99.90
2106;DHT22;1059;52.548;13.408;2022-12-07T02:42:14;2.70;99.90
2106;DHT22;1059;52.548;13.408;2022-12-07T02:44:44;2.60;99.90
2106;DHT22;1059;52.548;13.408;2022-12-07T02:47:15;2.60;99.90
2106;DHT22;1059;52.548;13.408;2022-12-07T02:49:43;2.60;99.90
2106;DHT22;1059;52.548;13.408;2022-12-07T02:52:11;2.50;99.90
2106;DHT22;1059;52.548;13.408;2022-12-07T02:54:37;2.60;99.90
2106;DHT22;1059;52.548;13.408;2022-12-07T02:57:15;2.60;99.90
2106;DHT22;1059;52.548;13.408;2022-12-07T03:00:00;2.60;99.90
2106;DHT22;1059;52.548;13.408;2022-12-07T03:02:34;2.70;99.90
2106;DHT22;1059;52.548;13.408;2022-12-07T03:05:18;2.60;99.90
2106;DHT22;1059;52.548;13.408;2022-12-07T03:07:57;2.70;99.90
2106;DHT22;1059;52.548;13.408;2022-12-07T03:10:32;2.60;99.90
2106;DHT22;1059;52.548;13.408;2022-12-07T03:13:07;2.60;99.90
2106;DHT22;1059;52.548;13.408;2022-12-07T03:15:41;2.60;99.90
2106;DHT22;1059;52.548;13.408;2022-12-07T03:18:11;2.60;99.90
2106;DHT22;1059;52.548;13.408;2022-12-07T03:20:40;2.60;99.90
2106;DHT22;1059;52.548;13.408;2022-12-07T03:23:10;2.70;99.90
2106;DHT22;1059;52.548;13.408;2022-12-07T03:25:39;2.70;99.90
2106;DHT22;1059;52.548;13.408;2022-12-07T03:28:07;2.60;99.90
2106;DHT22;1059;52.548;13.408;2022-12-07T03:30:39;2.60;99.90
2106;DHT22;1059;52.548;13.408;2022-12-07T03:33:11;2.60;99.90
2106;DHT22;1059;52.548;13.408;2022-12-07T03:35:41;2.60;99.90
2106;DHT22;1059;52.548;13.408;2022-12-07T03:38:15;2.60;99.90
2106;DHT22;1059;52.548;13.408;2022-12-07T03:40:47;2.70;99.90
2106;DHT22;1059;52.548;13.408;2022-12-07T03:43:16;2.70;99.90
2106;DHT22;1059;52.548;13.408;2022-12-07T03:45:55;2.70;99.90
2106;DHT22;1059;52.548;13.408;2022-12-07T03:48:26;2.70;99.90
2106;DHT22;1059;52.548;13.408;2022-12-07T03:50:58;2.70;99.90
2106;DHT22;1059;52.548;13.408;2022-12-07T03:53:31;2.70;99.90
2106;DHT22;1059;52.548;13.408;2022-12-07T03:56:02;2.70;99.90
2106;DHT22;1059;52.548;13.408;2022-12-07T03:58:30;2.70;99.90
2106;DHT22;1059;52.548;13.408;2022-12-07T04:00:59;2.70;99.90
2106;DHT22;1059;52.548;13.408;2022-12-07T04:03:26;2.70;99.90
2106;DHT22;1059;52.548;13.408;2022-12-07T04:05:53;2.70;99.90
2106;DHT22;1059;52.548;13.408;2022-12-07T04:08:20;2.70;99.90
2106;DHT22;1059;52.548;13.408;2022-12-07T04:10:47;2.60;99.90
2106;DHT22;1059;52.548;13.408;2022-12-07T04:13:13;2.60;99.90
2106;DHT22;1059;52.548;13.408;2022-12-07T04:15:40;2.60;99.90
2106;DHT22;1059;52.548;13.408;2022-12-07T04:18:08;2.60;99.90
2106;DHT22;1059;52.548;13.408;2022-12-07T04:20:35;2.60;99.90
2106;DHT22;1059;52.548;13.408;2022-12-07T04:23:02;2.60;99.90
2106;DHT22;1059;52.548;13.408;2022-12-07T04:25:29;2.60;99.90
2106;DHT22;1059;52.548;13.408;2022-12-07T04:27:56;2.50;99.90
2106;DHT22;1059;52.548;13.408;2022-12-07T04:30:23;2.50;99.90
2106;DHT22;1059;52.548;13.408;2022-12-07T04:32:50;2.50;99.90
2106;DHT22;1059;52.548;13.408;2022-12-07T04:35:18;2.50;99.90
2106;DHT22;1059;52.548;13.408;2022-12-07T04:37:45;2.50;99.90
2106;DHT22;1059;52.548;13.408;2022-12-07T04:40:12;2.40;99.90
2106;DHT22;1059;52.548;13.408;2022-12-07T04:42:39;2.40;99.90
2106;DHT22;1059;52.548;13.408;2022-12-07T04:45:07;2.50;99.90
2106;DHT22;1059;52.548;13.408;2022-12-07T04:47:34;2.40;99.90
2106;DHT22;1059;52.548;13.408;2022-12-07T04:50:01;2.50;99.90
2106;DHT22;1059;52.548;13.408;2022-12-07T04:52:29;2.40;99.90
2106;DHT22;1059;52.548;13.408;2022-12-07T04:54:56;2.40;99.90
2106;DHT22;1059;52.548;13.408;2022-12-07T04:57:23;2.50;99.90
2106;DHT22;1059;52.548;13.408;2022-12-07T04:59:50;2.50;99.90
2106;DHT22;1059;52.548;13.408;2022-12-07T05:02:16;2.60;99.90
2106;DHT22;1059;52.548;13.408;2022-12-07T05:04:43;2.60;99.90
2106;DHT22;1059;52.548;13.408;2022-12-07T05:07:10;2.60;99.90
2106;DHT22;1059;52.548;13.408;2022-12-07T05:09:38;2.60;99.90
2106;DHT22;1059;52.548;13.408;2022-12-07T05:12:05;2.60;99.90
2106;DHT22;1059;52.548;13.408;2022-12-07T05:14:32;2.60;99.90
2106;DHT22;1059;52.548;13.408;2022-12-07T05:16:59;2.60;99.90
2106;DHT22;1059;52.548;13.408;2022-12-07T05:19:25;2.60;99.90
2106;DHT22;1059;52.548;13.408;2022-12-07T05:21:52;2.70;99.90
2106;DHT22;1059;52.548;13.408;2022-12-07T05:24:19;2.80;99.90
2106;DHT22;1059;52.548;13.408;2022-12-07T05:26:47;2.80;99.90
2106;DHT22;1059;52.548;13.408;2022-12-07T05:29:16;2.90;99.90
2106;DHT22;1059;52.548;13.408;2022-12-07T05:31:43;2.90;99.90
2106;DHT22;1059;52.548;13.408;2022-12-07T05:34:11;2.90;99.90
2106;DHT22;1059;52.548;13.408;2022-12-07T05:36:38;3.00;99.90
2106;DHT22;1059;52.548;13.408;2022-12-07T05:39:05;3.00;99.90
2106;DHT22;1059;52.548;13.408;2022-12-07T05:41:32;3.00;99.90
2106;DHT22;1059;52.548;13.408;2022-12-07T05:44:18;3.00;99.90
2106;DHT22;1059;52.548;13.408;2022-12-07T05:46:45;3.00;99.90
2106;DHT22;1059;52.548;13.408;2022-12-07T05:49:11;3.10;99.90
2106;DHT22;1059;52.548;13.408;2022-12-07T05:51:38;3.10;99.90
2106;DHT22;1059;52.548;13.408;2022-12-07T05:54:05;3.20;99.90
2106;DHT22;1059;52.548;13.408;2022-12-07T05:56:32;3.20;99.90
2106;DHT22;1059;52.548;13.408;2022-12-07T05:58:59;3.30;99.90
2106;DHT22;1059;52.548;13.408;2022-12-07T06:01:44;3.30;99.90
2106;DHT22;1059;52.548;13.408;2022-12-07T06:04:11;3.30;99.90
2106;DHT22;1059;52.548;13.408;2022-12-07T06:06:38;3.40;99.90
2106;DHT22;1059;52.548;13.408;2022-12-07T06:09:05;3.40;99.90
2106;DHT22;1059;52.548;13.408;2022-12-07T06:11:32;3.40;99.90
2106;DHT22;1059;52.548;13.408;2022-12-07T06:14:17;3.40;99.90
2106;DHT22;1059;52.548;13.408;2022-12-07T06:16:45;3.50;99.90
2106;DHT22;1059;52.548;13.408;2022-12-07T06:19:12;3.40;99.90
2106;DHT22;1059;52.548;13.408;2022-12-07T06:21:39;3.50;99.90
2106;DHT22;1059;52.548;13.408;2022-12-07T06:24:06;3.50;99.90
2106;DHT22;1059;52.548;13.408;2022-12-07T06:26:33;3.40;99.90
2106;DHT22;1059;52.548;13.408;2022-12-07T06:29:00;3.50;99.90
2106;DHT22;1059;52.548;13.408;2022-12-07T06:31:27;3.40;99.90
2106;DHT22;1059;52.548;13.408;2022-12-07T06:33:58;3.40;99.90
2106;DHT22;1059;52.548;13.408;2022-12-07T06:36:25;3.40;99.90
2106;DHT22;1059;52.548;13.408;2022-12-07T06:38:52;3.40;99.90
2106;DHT22;1059;52.548;13.408;2022-12-07T06:41:19;3.30;99.90
2106;DHT22;1059;52.548;13.408;2022-12-07T06:43:46;3.30;99.90
2106;DHT22;1059;52.548;13.408;2022-12-07T06:46:13;3.30;99.90
2106;DHT22;1059;52.548;13.408;2022-12-07T06:48:39;3.30;99.90
2106;DHT22;1059;52.548;13.408;2022-12-07T06:51:08;3.30;99.90
2106;DHT22;1059;52.548;13.408;2022-12-07T06:53:35;3.30;99.90
2106;DHT22;1059;52.548;13.408;2022-12-07T06:56:03;3.30;99.90
2106;DHT22;1059;52.548;13.408;2022-12-07T06:58:30;3.40;99.90
2106;DHT22;1059;52.548;13.408;2022-12-07T07:00:57;3.30;99.90
2106;DHT22;1059;52.548;13.408;2022-12-07T07:03:24;3.30;99.90
2106;DHT22;1059;52.548;13.408;2022-12-07T07:05:51;3.40;99.90
2106;DHT22;1059;52.548;13.408;2022-12-07T07:08:19;3.40;99.90
2106;DHT22;1059;52.548;13.408;2022-12-07T07:10:46;3.40;99.90
2106;DHT22;1059;52.548;13.408;2022-12-07T07:13:12;3.50;99.90
2106;DHT22;1059;52.548;13.408;2022-12-07T07:15:39;3.50;99.90
2106;DHT22;1059;52.548;13.408;2022-12-07T07:18:06;3.50;99.90
2106;DHT22;1059;52.548;13.408;2022-12-07T07:20:33;3.50;99.90
2106;DHT22;1059;52.548;13.408;2022-12-07T07:23:00;3.60;99.90
2106;DHT22;1059;52.548;13.408;2022-12-07T07:25:28;3.60;99.90
2106;DHT22;1059;52.548;13.408;2022-12-07T07:27:55;3.60;99.90
2106;DHT22;1059;52.548;13.408;2022-12-07T07:30:22;3.60;99.90
2106;DHT22;1059;52.548;13.408;2022-12-07T07:32:49;3.70;99.90
2106;DHT22;1059;52.548;13.408;2022-12-07T07:35:16;3.70;99.90
2106;DHT22;1059;52.548;13.408;2022-12-07T07:37:43;3.70;99.90
2106;DHT22;1059;52.548;13.408;2022-12-07T07:40:11;3.70;99.90
2106;DHT22;1059;52.548;13.408;2022-12-07T07:42:39;3.70;99.90
2106;DHT22;1059;52.548;13.408;2022-12-07T07:45:07;3.70;99.90
2106;DHT22;1059;52.548;13.408;2022-12-07T07:47:34;3.70;99.90
2106;DHT22;1059;52.548;13.408;2022-12-07T07:50:01;3.70;99.90
2106;DHT22;1059;52.548;13.408;2022-12-07T07:52:27;3.70;99.90
2106;DHT22;1059;52.548;13.408;2022-12-07T07:54:54;3.80;99.90
2106;DHT22;1059;52.548;13.408;2022-12-07T07:57:21;3.80;99.90
2106;DHT22;1059;52.548;13.408;2022-12-07T07:59:49;3.80;99.90
2106;DHT22;1059;52.548;13.408;2022-12-07T08:02:18;3.80;99.90
2106;DHT22;1059;52.548;13.408;2022-12-07T08:04:46;3.80;99.90
2106;DHT22;1059;52.548;13.408;2022-12-07T08:07:13;3.90;99.90
2106;DHT22;1059;52.548;13.408;2022-12-07T08:09:41;3.90;99.90
2106;DHT22;1059;52.548;13.408;2022-12-07T08:12:08;3.80;99.90
2106;DHT22;1059;52.548;13.408;2022-12-07T08:14:35;3.90;99.90
2106;DHT22;1059;52.548;13.408;2022-12-07T08:17:03;3.90;99.90
2106;DHT22;1059;52.548;13.408;2022-12-07T08:19:30;3.90;99.90
2106;DHT22;1059;52.548;13.408;2022-12-07T08:21:57;3.90;99.90
2106;DHT22;1059;52.548;13.408;2022-12-07T08:24:24;3.90;99.90
2106;DHT22;1059;52.548;13.408;2022-12-07T08:26:51;3.90;99.90
2106;DHT22;1059;52.548;13.408;2022-12-07T08:29:18;3.90;99.90
2106;DHT22;1059;52.548;13.408;2022-12-07T08:31:45;4.00;99.90
2106;DHT22;1059;52.548;13.408;2022-12-07T08:34:13;4.00;99.90
2106;DHT22;1059;52.548;13.408;2022-12-07T08:36:40;4.00;99.90
2106;DHT22;1059;52.548;13.408;2022-12-07T08:39:07;4.00;99.90
2106;DHT22;1059;52.548;13.408;2022-12-07T08:41:34;4.00;99.90
2106;DHT22;1059;52.548;13.408;2022-12-07T08:44:01;4.00;99.90
2106;DHT22;1059;52.548;13.408;2022-12-07T08:46:31;4.10;99.90
2106;DHT22;1059;52.548;13.408;2022-12-07T08:49:03;4.10;99.90
2106;DHT22;1059;52.548;13.408;2022-12-07T08:51:32;4.10;99.90
2106;DHT22;1059;52.548;13.408;2022-12-07T08:54:01;4.10;99.90
2106;DHT22;1059;52.548;13.408;2022-12-07T08:56:30;4.00;99.90
2106;DHT22;1059;52.548;13.408;2022-12-07T08:58:57;4.10;99.90
2106;DHT22;1059;52.548;13.408;2022-12-07T09:01:24;4.10;99.90
2106;DHT22;1059;52.548;13.408;2022-12-07T09:03:51;4.00;99.90
2106;DHT22;1059;52.548;13.408;2022-12-07T09:06:18;4.10;99.90
2106;DHT22;1059;52.548;13.408;2022-12-07T09:08:51;4.00;99.90
2106;DHT22;1059;52.548;13.408;2022-12-07T09:11:19;4.10;99.90
2106;DHT22;1059;52.548;13.408;2022-12-07T09:13:46;4.10;99.90
2106;DHT22;1059;52.548;13.408;2022-12-07T09:16:13;4.10;99.90
2106;DHT22;1059;52.548;13.408;2022-12-07T09:18:40;4.10;99.90
2106;DHT22;1059;52.548;13.408;2022-12-07T09:21:07;4.10;99.90
2106;DHT22;1059;52.548;13.408;2022-12-07T09:23:34;4.10;99.90
2106;DHT22;1059;52.548;13.408;2022-12-07T09:26:04;4.00;99.90
2106;DHT22;1059;52.548;13.408;2022-12-07T09:28:31;3.90;99.90
2106;DHT22;1059;52.548;13.408;2022-12-07T09:30:58;3.90;99.90
2106;DHT22;1059;52.548;13.408;2022-12-07T09:33:25;3.90;99.90
2106;DHT22;1059;52.548;13.408;2022-12-07T09:35:52;4.00;99.90
2106;DHT22;1059;52.548;13.408;2022-12-07T09:38:20;3.90;99.90
2106;DHT22;1059;52.548;13.408;2022-12-07T09:40:47;4.00;99.90
2106;DHT22;1059;52.548;13.408;2022-12-07T09:43:18;4.00;99.90
2106;DHT22;1059;52.548;13.408;2022-12-07T09:45:48;3.90;99.90
2106;DHT22;1059;52.548;13.408;2022-12-07T09:48:19;3.90;99.90
2106;DHT22;1059;52.548;13.408;2022-12-07T09:50:48;3.80;99.90
2106;DHT22;1059;52.548;13.408;2022-12-07T09:53:21;3.80;99.90
2106;DHT22;1059;52.548;13.408;2022-12-07T09:55:49;3.70;99.90
2106;DHT22;1059;52.548;13.408;2022-12-07T09:58:20;3.70;99.90
2106;DHT22;1059;52.548;13.408;2022-12-07T10:00:50;3.80;99.90
2106;DHT22;1059;52.548;13.408;2022-12-07T10:03:17;3.80;99.90
2106;DHT22;1059;52.548;13.408;2022-12-07T10:05:46;3.80;99.90
2106;DHT22;1059;52.548;13.408;2022-12-07T10:08:14;3.80;99.90
2106;DHT22;1059;52.548;13.408;2022-12-07T10:10:43;3.80;99.90
2106;DHT22;1059;52.548;13.408;2022-12-07T10:13:13;3.90;99.90
2106;DHT22;1059;52.548;13.408;2022-12-07T10:15:47;3.90;99.90
2106;DHT22;1059;52.548;13.408;2022-12-07T10:18:20;3.90;99.90
2106;DHT22;1059;52.548;13.408;2022-12-07T10:20:48;3.90;99.90
2106;DHT22;1059;52.548;13.408;2022-12-07T10:23:16;3.80;99.90
2106;DHT22;1059;52.548;13.408;2022-12-07T10:25:45;3.80;99.90
2106;DHT22;1059;52.548;13.408;2022-12-07T10:28:16;3.80;99.90
2106;DHT22;1059;52.548;13.408;2022-12-07T10:30:49;3.80;99.90
2106;DHT22;1059;52.548;13.408;2022-12-07T10:33:35;3.80;99.90
2106;DHT22;1059;52.548;13.408;2022-12-07T10:36:17;3.80;99.90
2106;DHT22;1059;52.548;13.408;2022-12-07T10:38:47;3.90;99.90
2106;DHT22;1059;52.548;13.408;2022-12-07T10:41:14;3.90;99.90
2106;DHT22;1059;52.548;13.408;2022-12-07T10:43:47;4.00;99.90
2106;DHT22;1059;52.548;13.408;2022-12-07T10:46:34;4.10;99.90
2106;DHT22;1059;52.548;13.408;2022-12-07T10:49:21;4.00;99.90
2106;DHT22;1059;52.548;13.408;2022-12-07T10:51:56;4.10;99.90
2106;DHT22;1059;52.548;13.408;2022-12-07T10:54:35;4.00;99.90
2106;DHT22;1059;52.548;13.408;2022-12-07T10:57:16;4.10;99.90
2106;DHT22;1059;52.548;13.408;2022-12-07T11:00:06;4.00;99.90
2106;DHT22;1059;52.548;13.408;2022-12-07T11:02:59;3.90;99.90
2106;DHT22;1059;52.548;13.408;2022-12-07T11:05:35;3.90;99.90
2106;DHT22;1059;52.548;13.408;2022-12-07T11:08:13;3.90;99.90
2106;DHT22;1059;52.548;13.408;2022-12-07T11:10:45;3.90;99.90
2106;DHT22;1059;52.548;13.408;2022-12-07T11:13:24;3.90;99.90
2106;DHT22;1059;52.548;13.408;2022-12-07T11:16:02;3.90;99.90
2106;DHT22;1059;52.548;13.408;2022-12-07T11:18:41;3.90;99.90
2106;DHT22;1059;52.548;13.408;2022-12-07T11:21:19;3.90;99.90
2106;DHT22;1059;52.548;13.408;2022-12-07T11:23:51;3.90;99.90
2106;DHT22;1059;52.548;13.408;2022-12-07T11:26:29;4.00;99.90
2106;DHT22;1059;52.548;13.408;2022-12-07T11:29:18;4.10;99.90
2106;DHT22;1059;52.548;13.408;2022-12-07T11:31:58;4.10;99.90
2106;DHT22;1059;52.548;13.408;2022-12-07T11:34:38;4.10;99.90
2106;DHT22;1059;52.548;13.408;2022-12-07T11:37:11;4.10;99.90
2106;DHT22;1059;52.548;13.408;2022-12-07T11:39:43;4.20;99.90
2106;DHT22;1059;52.548;13.408;2022-12-07T11:42:15;4.20;99.90
2106;DHT22;1059;52.548;13.408;2022-12-07T11:44:49;4.30;99.90
2106;DHT22;1059;52.548;13.408;2022-12-07T11:47:25;4.30;99.90
2106;DHT22;1059;52.548;13.408;2022-12-07T11:50:00;4.20;99.90
2106;DHT22;1059;52.548;13.408;2022-12-07T11:52:35;4.20;99.90
2106;DHT22;1059;52.548;13.408;2022-12-07T11:55:16;4.20;99.90
2106;DHT22;1059;52.548;13.408;2022-12-07T11:57:46;4.20;99.90
2106;DHT22;1059;52.548;13.408;2022-12-07T12:00:17;4.30;99.90
2106;DHT22;1059;52.548;13.408;2022-12-07T12:02:49;4.40;99.90
2106;DHT22;1059;52.548;13.408;2022-12-07T12:05:21;4.30;99.90
2106;DHT22;1059;52.548;13.408;2022-12-07T12:07:53;4.40;99.90
2106;DHT22;1059;52.548;13.408;2022-12-07T12:10:29;4.40;99.90
2106;DHT22;1059;52.548;13.408;2022-12-07T12:13:28;4.40;99.90
2106;DHT22;1059;52.548;13.408;2022-12-07T12:16:17;4.40;99.90
2106;DHT22;1059;52.548;13.408;2022-12-07T12:18:53;4.50;99.90
2106;DHT22;1059;52.548;13.408;2022-12-07T12:21:28;4.50;99.90
2106;DHT22;1059;52.548;13.408;2022-12-07T12:23:58;4.40;99.90
2106;DHT22;1059;52.548;13.408;2022-12-07T12:26:27;4.50;99.90
2106;DHT22;1059;52.548;13.408;2022-12-07T12:28:57;4.50;99.90
2106;DHT22;1059;52.548;13.408;2022-12-07T12:31:35;4.60;99.90
2106;DHT22;1059;52.548;13.408;2022-12-07T12:34:04;4.70;99.90
2106;DHT22;1059;52.548;13.408;2022-12-07T12:36:46;4.70;99.90
2106;DHT22;1059;52.548;13.408;2022-12-07T12:39:14;4.60;99.90
2106;DHT22;1059;52.548;13.408;2022-12-07T12:41:53;4.60;99.90
2106;DHT22;1059;52.548;13.408;2022-12-07T12:45:03;4.60;99.90
2106;DHT22;1059;52.548;13.408;2022-12-07T12:47:53;4.60;99.90
2106;DHT22;1059;52.548;13.408;2022-12-07T12:50:28;4.60;99.90
2106;DHT22;1059;52.548;13.408;2022-12-07T12:53:19;4.60;99.90
2106;DHT22;1059;52.548;13.408;2022-12-07T13:01:55;4.60;99.90
2106;DHT22;1059;52.548;13.408;2022-12-07T13:04:39;4.60;99.90
2106;DHT22;1059;52.548;13.408;2022-12-07T13:07:13;4.60;99.90
2106;DHT22;1059;52.548;13.408;2022-12-07T13:10:02;4.70;99.90
2106;DHT22;1059;52.548;13.408;2022-12-07T13:12:29;4.60;99.90
2106;DHT22;1059;52.548;13.408;2022-12-07T13:14:58;4.70;99.90
2106;DHT22;1059;52.548;13.408;2022-12-07T13:18:00;4.70;99.90
2106;DHT22;1059;52.548;13.408;2022-12-07T13:20:44;4.70;99.90
2106;DHT22;1059;52.548;13.408;2022-12-07T13:23:12;4.70;99.90
2106;DHT22;1059;52.548;13.408;2022-12-07T13:25:51;4.70;99.90
2106;DHT22;1059;52.548;13.408;2022-12-07T13:28:19;4.70;99.90
2106;DHT22;1059;52.548;13.408;2022-12-07T13:31:11;4.70;99.90
2106;DHT22;1059;52.548;13.408;2022-12-07T13:33:40;4.80;99.90
2106;DHT22;1059;52.548;13.408;2022-12-07T13:36:17;4.80;99.90
2106;DHT22;1059;52.548;13.408;2022-12-07T13:38:53;4.80;99.90
2106;DHT22;1059;52.548;13.408;2022-12-07T13:41:23;4.80;99.90
2106;DHT22;1059;52.548;13.408;2022-12-07T13:43:53;4.80;99.90
2106;DHT22;1059;52.548;13.408;2022-12-07T13:46:25;4.80;99.90
2106;DHT22;1059;52.548;13.408;2022-12-07T13:48:53;4.80;99.90
2106;DHT22;1059;52.548;13.408;2022-12-07T13:51:34;4.80;99.90
2106;DHT22;1059;52.548;13.408;2022-12-07T13:54:08;4.80;99.90
2106;DHT22;1059;52.548;13.408;2022-12-07T13:56:37;4.80;99.90
2106;DHT22;1059;52.548;13.408;2022-12-07T13:59:07;4.80;99.90
2106;DHT22;1059;52.548;13.408;2022-12-07T14:01:37;4.80;99.90
2106;DHT22;1059;52.548;13.408;2022-12-07T14:04:31;4.80;99.90
2106;DHT22;1059;52.548;13.408;2022-12-07T14:06:59;4.80;99.90
2106;DHT22;1059;52.548;13.408;2022-12-07T14:09:27;4.80;99.90
2106;DHT22;1059;52.548;13.408;2022-12-07T14:11:57;4.80;99.90
2106;DHT22;1059;52.548;13.408;2022-12-07T14:14:28;4.80;99.90
2106;DHT22;1059;52.548;13.408;2022-12-07T14:16:57;4.80;99.90
2106;DHT22;1059;52.548;13.408;2022-12-07T14:19:48;4.80;99.90
2106;DHT22;1059;52.548;13.408;2022-12-07T14:22:28;4.80;99.90
2106;DHT22;1059;52.548;13.408;2022-12-07T14:25:00;4.70;99.90
2106;DHT22;1059;52.548;13.408;2022-12-07T14:27:33;4.80;99.90
2106;DHT22;1059;52.548;13.408;2022-12-07T14:30:02;4.70;99.90
2106;DHT22;1059;52.548;13.408;2022-12-07T14:32:30;4.70;99.90
2106;DHT22;1059;52.548;13.408;2022-12-07T14:35:00;4.70;99.90
2106;DHT22;1059;52.548;13.408;2022-12-07T14:37:29;4.60;99.90
2106;DHT22;1059;52.548;13.408;2022-12-07T14:39:56;4.60;99.90
2106;DHT22;1059;52.548;13.408;2022-12-07T14:42:26;4.60;99.90
2106;DHT22;1059;52.548;13.408;2022-12-07T14:44:57;4.60;99.90
2106;DHT22;1059;52.548;13.408;2022-12-07T14:47:24;4.60;99.90
2106;DHT22;1059;52.548;13.408;2022-12-07T14:49:52;4.60;99.90
2106;DHT22;1059;52.548;13.408;2022-12-07T14:52:22;4.50;99.90
2106;DHT22;1059;52.548;13.408;2022-12-07T14:54:50;4.50;99.90
2106;DHT22;1059;52.548;13.408;2022-12-07T14:57:17;4.50;99.90
2106;DHT22;1059;52.548;13.408;2022-12-07T14:59:44;4.50;99.90
2106;DHT22;1059;52.548;13.408;2022-12-07T15:02:13;4.50;99.90
2106;DHT22;1059;52.548;13.408;2022-12-07T15:04:41;4.40;99.90
2106;DHT22;1059;52.548;13.408;2022-12-07T15:07:14;4.40;99.90
2106;DHT22;1059;52.548;13.408;2022-12-07T15:09:43;4.40;99.90
2106;DHT22;1059;52.548;13.408;2022-12-07T15:12:10;4.40;99.90
2106;DHT22;1059;52.548;13.408;2022-12-07T15:14:36;4.30;99.90
2106;DHT22;1059;52.548;13.408;2022-12-07T15:17:03;4.30;99.90
2106;DHT22;1059;52.548;13.408;2022-12-07T15:19:32;4.30;99.90
2106;DHT22;1059;52.548;13.408;2022-12-07T15:21:58;4.30;99.90
2106;DHT22;1059;52.548;13.408;2022-12-07T15:24:26;4.30;99.90
2106;DHT22;1059;52.548;13.408;2022-12-07T15:26:53;4.20;99.90
2106;DHT22;1059;52.548;13.408;2022-12-07T15:29:20;4.20;99.90
2106;DHT22;1059;52.548;13.408;2022-12-07T15:31:48;4.10;99.90
2106;DHT22;1059;52.548;13.408;2022-12-07T15:34:15;4.10;99.90
2106;DHT22;1059;52.548;13.408;2022-12-07T15:36:43;4.10;99.90
2106;DHT22;1059;52.548;13.408;2022-12-07T15:39:10;4.10;99.90
2106;DHT22;1059;52.548;13.408;2022-12-07T15:41:37;4.10;99.90
2106;DHT22;1059;52.548;13.408;2022-12-07T15:44:04;4.10;99.90
2106;DHT22;1059;52.548;13.408;2022-12-07T15:46:48;4.10;99.90
2106;DHT22;1059;52.548;13.408;2022-12-07T15:49:17;4.10;99.90
2106;DHT22;1059;52.548;13.408;2022-12-07T15:51:45;4.00;99.90
2106;DHT22;1059;52.548;13.408;2022-12-07T15:54:15;4.10;99.90
2106;DHT22;1059;52.548;13.408;2022-12-07T15:56:43;4.10;99.90
2106;DHT22;1059;52.548;13.408;2022-12-07T15:59:10;4.10;99.90
2106;DHT22;1059;52.548;13.408;2022-12-07T16:01:37;4.20;99.90
2106;DHT22;1059;52.548;13.408;2022-12-07T16:04:04;4.20;99.90
2106;DHT22;1059;52.548;13.408;2022-12-07T16:06:30;4.20;99.90
2106;DHT22;1059;52.548;13.408;2022-12-07T16:08:59;4.10;99.90
2106;DHT22;1059;52.548;13.408;2022-12-07T16:11:26;4.10;99.90
2106;DHT22;1059;52.548;13.408;2022-12-07T16:13:53;4.10;99.90
2106;DHT22;1059;52.548;13.408;2022-12-07T16:16:20;4.10;99.90
2106;DHT22;1059;52.548;13.408;2022-12-07T16:18:48;4.00;99.90
2106;DHT22;1059;52.548;13.408;2022-12-07T16:21:17;4.00;99.90
2106;DHT22;1059;52.548;13.408;2022-12-07T16:23:47;3.90;99.90
2106;DHT22;1059;52.548;13.408;2022-12-07T16:26:16;3.80;99.90
2106;DHT22;1059;52.548;13.408;2022-12-07T16:28:44;3.80;99.90
2106;DHT22;1059;52.548;13.408;2022-12-07T16:31:13;3.80;99.90